Time;durP1;ratioP1;P1;durP2;ratioP2;P2;SDS_P1;SDS_P2;PMS_P1;PMS_P2;Temp;Humidity;BMP_temperature;BMP_pressure;BME280_temperature;BME280_humidity;BME280_pressure;Samples;Min_cycle;Max_cycle;Signal;HPM_P1;HPM_P2
2022/10/05 00:01:45;;;;;;;3.13;0.30;;;;;;;18.30;80.98;100888.47;7382523;19;20053;-64
2022/10/05 00:04:18;;;;;;;2.38;0.28;;;;;;;18.31;80.69;100882.13;7379471;19;20015;-64
2022/10/05 00:06:54;;;;;;;1.45;0.20;;;;;;;18.32;80.45;100881.13;7386935;19;20014;-67
2022/10/05 00:09:22;;;;;;;4.60;0.50;;;;;;;18.33;79.78;100885.44;7385067;19;20046;-67
2022/10/05 00:11:50;;;;;;;2.58;0.50;;;;;;;18.34;79.47;100875.56;7385634;19;20018;-68
2022/10/05 00:14:21;;;;;;;1.70;0.30;;;;;;;18.36;80.29;100871.69;7381902;19;20507;-67
2022/10/05 00:16:48;;;;;;;2.90;0.20;;;;;;;18.36;79.94;100869.03;7384987;19;20018;-69
2022/10/05 00:19:31;;;;;;;3.88;0.50;;;;;;;18.34;79.53;100872.91;7384820;19;20010;-67
2022/10/05 00:22:12;;;;;;;1.60;0.20;;;;;;;18.33;80.00;100860.63;7385502;19;20562;-68
2022/10/05 00:24:39;;;;;;;4.10;0.30;;;;;;;18.32;80.03;100857.16;7385061;19;20051;-68
2022/10/05 00:27:19;;;;;;;2.15;0.20;;;;;;;18.33;80.45;100860.63;7385407;19;20018;-69
2022/10/05 00:29:49;;;;;;;3.65;0.57;;;;;;;18.33;80.39;100849.97;7382415;19;20018;-67
2022/10/05 00:32:16;;;;;;;5.78;0.35;;;;;;;18.33;80.99;100848.13;7382593;19;20685;-68
2022/10/05 00:34:44;;;;;;;1.98;0.20;;;;;;;18.36;80.96;100853.03;7379462;19;20018;-69
2022/10/05 00:37:13;;;;;;;3.28;0.38;;;;;;;18.38;81.33;100847.53;7385592;19;20010;-68
2022/10/05 00:39:41;;;;;;;2.22;0.20;;;;;;;18.38;80.70;100850.19;7385774;19;20021;-69
2022/10/05 00:42:36;;;;;;;7.22;0.30;;;;;;;18.39;80.77;100852.63;7384645;19;20021;-69
2022/10/05 00:45:17;;;;;;;5.75;0.20;;;;;;;18.41;80.84;100851.59;7383181;19;20025;-67
2022/10/05 00:47:56;;;;;;;2.40;0.30;;;;;;;18.37;80.29;100849.38;7383464;19;20018;-67
2022/10/05 00:50:51;;;;;;;3.05;0.20;;;;;;;18.38;79.93;100853.69;7384441;19;20030;-70
2022/10/05 00:53:41;;;;;;;2.20;0.30;;;;;;;18.39;81.52;100847.31;7384199;19;20018;-68
2022/10/05 00:56:33;;;;;;;2.13;0.30;;;;;;;18.39;80.28;100849.13;7383726;19;20088;-68
2022/10/05 00:59:39;;;;;;;3.63;0.50;;;;;;;18.37;80.21;100848.53;7384038;19;20482;-69
2022/10/05 01:02:14;;;;;;;4.38;0.28;;;;;;;18.38;80.64;100851.00;7383556;19;20011;-68
2022/10/05 01:04:58;;;;;;;2.08;0.45;;;;;;;18.38;79.97;100847.53;7382524;19;20015;-68
2022/10/05 01:07:39;;;;;;;2.63;0.20;;;;;;;18.39;80.24;100851.81;7385853;19;20014;-68
2022/10/05 01:10:21;;;;;;;4.15;0.40;;;;;;;18.40;79.96;100853.44;7383036;19;20014;-68
2022/10/05 01:13:22;;;;;;;3.47;0.38;;;;;;;18.42;79.98;100843.41;7379129;19;20486;-67
2022/10/05 01:16:28;;;;;;;3.13;0.30;;;;;;;18.41;79.63;100836.44;7384510;19;20042;-68
2022/10/05 01:19:38;;;;;;;3.38;0.30;;;;;;;18.45;80.50;100839.50;7384114;19;20030;-68
2022/10/05 01:22:36;;;;;;;3.92;0.30;;;;;;;18.45;80.21;100836.84;7382505;19;20596;-67
2022/10/05 01:25:29;;;;;;;4.28;0.60;;;;;;;18.48;80.68;100831.13;7383815;19;20014;-68
2022/10/05 01:28:02;;;;;;;5.55;0.40;;;;;;;18.48;79.41;100829.28;7385078;19;20018;-67
2022/10/05 01:30:41;;;;;;;4.28;0.25;;;;;;;18.48;79.44;100820.47;7383187;19;20040;-68
2022/10/05 01:33:21;;;;;;;5.88;0.30;;;;;;;18.47;79.65;100819.66;7383731;19;20495;-68
2022/10/05 01:35:54;;;;;;;6.50;0.63;;;;;;;18.49;80.12;100814.13;7382679;19;20110;-67
2022/10/05 01:38:58;;;;;;;3.08;0.30;;;;;;;18.51;79.74;100806.72;7383776;19;20124;-67
2022/10/05 01:41:40;;;;;;;4.53;0.20;;;;;;;18.51;79.38;100810.22;7382293;19;20006;-68
2022/10/05 01:44:25;;;;;;;5.22;0.50;;;;;;;18.51;79.45;100806.72;7385032;19;20697;-68
2022/10/05 01:47:29;;;;;;;8.40;0.20;;;;;;;18.49;79.01;100804.25;7384876;19;20010;-69
2022/10/05 01:50:03;;;;;;;3.70;0.30;;;;;;;18.50;79.56;100791.75;7386604;19;20019;-68
2022/10/05 01:52:39;;;;;;;3.58;0.50;;;;;;;18.51;79.25;100791.56;7390289;19;20011;-69
2022/10/05 01:55:21;;;;;;;4.30;0.30;;;;;;;18.51;79.04;100788.06;7391845;19;20010;-68
2022/10/05 01:57:57;;;;;;;4.05;0.30;;;;;;;18.51;79.21;100780.06;7389649;19;20479;-68
2022/10/05 02:00:24;;;;;;;8.77;0.93;;;;;;;18.53;79.06;100786.03;7390711;19;20010;-68
2022/10/05 02:02:58;;;;;;;2.50;0.30;;;;;;;18.54;79.47;100777.03;7385719;19;20017;-68
2022/10/05 02:05:51;;;;;;;3.67;0.20;;;;;;;18.56;79.24;100767.81;7388887;19;20018;-67
2022/10/05 02:08:28;;;;;;;3.13;0.30;;;;;;;18.52;78.97;100774.53;7389784;19;20010;-67
2022/10/05 02:11:02;;;;;;;4.18;0.32;;;;;;;18.50;79.53;100771.25;7388017;19;20043;-68
2022/10/05 02:13:46;;;;;;;2.38;0.20;;;;;;;18.50;79.49;100762.44;7390619;19;20021;-68
2022/10/05 02:16:19;;;;;;;4.40;0.40;;;;;;;18.49;79.77;100771.47;7390698;19;20011;-68
2022/10/05 02:18:53;;;;;;;5.25;0.45;;;;;;;18.49;80.14;100772.28;7389256;19;20014;-68
2022/10/05 02:21:35;;;;;;;4.45;0.40;;;;;;;18.48;80.50;100768.00;7388398;19;20316;-68
2022/10/05 02:24:08;;;;;;;1.27;0.20;;;;;;;18.50;80.58;100762.44;7389095;19;20018;-68
2022/10/05 02:26:37;;;;;;;5.93;0.40;;;;;;;18.48;80.04;100751.19;7390014;19;20015;-72
2022/10/05 02:29:12;;;;;;;5.90;1.23;;;;;;;18.50;80.84;100754.44;7390323;19;20102;-68
2022/10/05 02:31:46;;;;;;;2.70;0.30;;;;;;;18.49;80.35;100748.28;7390663;19;20010;-69
2022/10/05 02:34:37;;;;;;;4.63;0.20;;;;;;;18.52;80.26;100753.22;7388943;19;20021;-67
2022/10/05 02:37:28;;;;;;;4.85;0.40;;;;;;;18.53;80.27;100744.22;7387283;19;20014;-67
2022/10/05 02:40:14;;;;;;;4.57;0.30;;;;;;;18.55;80.52;100736.84;7389144;19;20405;-69
2022/10/05 02:43:04;;;;;;;1.67;0.20;;;;;;;18.55;79.51;100738.69;7385892;19;20015;-66
2022/10/05 02:45:46;;;;;;;4.90;0.30;;;;;;;18.53;79.60;100735.41;7387439;19;20674;-67
2022/10/05 02:48:27;;;;;;;4.60;0.30;;;;;;;18.51;79.24;100716.13;7387130;19;20483;-68
2022/10/05 02:51:16;;;;;;;4.53;0.30;;;;;;;18.50;79.37;100731.28;7387555;19;20046;-67
2022/10/05 02:53:57;;;;;;;4.72;0.30;;;;;;;18.46;77.95;100729.25;7388700;19;20354;-67
2022/10/05 02:56:29;;;;;;;4.43;0.22;;;;;;;18.46;78.93;100724.72;7388426;19;20340;-68
2022/10/05 02:59:16;;;;;;;3.30;0.40;;;;;;;18.46;78.67;100723.91;7388941;19;20039;-68
2022/10/05 03:01:50;;;;;;;1.17;0.25;;;;;;;18.45;78.50;100720.41;7387538;19;20490;-69
2022/10/05 03:04:31;;;;;;;2.55;0.30;;;;;;;18.46;78.91;100713.25;7387160;19;20019;-67
2022/10/05 03:07:13;;;;;;;3.45;0.50;;;;;;;18.48;78.88;100709.38;7388766;19;20019;-68
2022/10/05 03:09:49;;;;;;;5.30;0.30;;;;;;;18.49;78.79;100707.53;7387847;19;20022;-69
2022/10/05 03:12:57;;;;;;;1.58;0.20;;;;;;;18.51;78.79;100702.78;7386017;19;20007;-67
2022/10/05 03:15:48;;;;;;;3.70;0.20;;;;;;;18.49;77.72;100702.19;7385226;19;20545;-69
2022/10/05 03:18:38;;;;;;;2.72;0.40;;;;;;;18.50;78.11;100693.97;7388210;19;20154;-68
2022/10/05 03:21:08;;;;;;;3.17;0.28;;;;;;;18.48;77.63;100706.69;7386692;19;20035;-67
2022/10/05 03:24:02;;;;;;;2.78;0.30;;;;;;;18.46;78.52;100700.75;7388679;19;20014;-71
2022/10/05 03:26:47;;;;;;;5.53;0.30;;;;;;;18.48;78.14;100701.38;7386242;19;20061;-68
2022/10/05 03:29:27;;;;;;;4.93;0.38;;;;;;;18.49;78.54;100696.88;7387380;19;20006;-65
2022/10/05 03:32:32;;;;;;;4.68;0.55;;;;;;;18.49;78.62;100702.97;7388183;19;20010;-64
2022/10/05 03:35:06;;;;;;;4.63;0.40;;;;;;;18.46;78.16;100691.94;7385569;19;20705;-64
2022/10/05 03:38:00;;;;;;;2.42;0.30;;;;;;;18.46;78.55;100683.94;7388027;19;20010;-65
2022/10/05 03:40:51;;;;;;;3.50;0.20;;;;;;;18.44;78.31;100686.81;7385673;19;20018;-64
2022/10/05 03:43:30;;;;;;;5.45;0.30;;;;;;;18.44;78.76;100680.69;7386634;19;20573;-63
2022/10/05 03:46:02;;;;;;;4.70;0.30;;;;;;;18.41;77.90;100675.75;7386947;19;20017;-63
2022/10/05 03:48:37;;;;;;;2.80;0.40;;;;;;;18.38;77.46;100675.16;7387998;19;20018;-63
2022/10/05 03:51:20;;;;;;;0.98;0.20;;;;;;;18.39;77.43;100670.63;7385003;19;20278;-63
2022/10/05 03:54:10;;;;;;;6.35;0.40;;;;;;;18.41;77.16;100673.09;7387277;19;20015;-63
2022/10/05 03:56:42;;;;;;;1.65;0.20;;;;;;;18.44;77.47;100667.34;7386392;19;20047;-64
2022/10/05 03:59:37;;;;;;;3.35;0.30;;;;;;;18.43;77.02;100671.88;7386438;19;20031;-64
2022/10/05 04:02:10;;;;;;;2.20;0.20;;;;;;;18.42;77.45;100667.56;7384522;19;20447;-64
2022/10/05 04:04:56;;;;;;;2.03;0.20;;;;;;;18.43;77.23;100671.88;7384132;19;20017;-66
2022/10/05 04:07:45;;;;;;;1.73;0.50;;;;;;;18.45;77.65;100663.63;7384245;19;20411;-65
2022/10/05 04:10:19;;;;;;;5.18;0.30;;;;;;;18.43;77.43;100665.72;7387009;19;20038;-64
2022/10/05 04:13:08;;;;;;;2.13;0.20;;;;;;;18.43;77.22;100661.19;7383707;19;20013;-64
2022/10/05 04:15:41;;;;;;;7.00;1.80;;;;;;;18.45;77.61;100655.66;7384875;19;20018;-69
2022/10/05 04:18:25;;;;;;;0.98;0.20;;;;;;;18.48;77.28;100652.59;7383745;19;20700;-66
2022/10/05 04:20:58;;;;;;;6.80;0.52;;;;;;;18.49;77.01;100648.91;7385265;19;20014;-65
2022/10/05 04:23:54;;;;;;;1.08;0.20;;;;;;;18.51;77.22;100641.50;7384277;19;20497;-64
2022/10/05 04:26:39;;;;;;;6.65;0.60;;;;;;;18.51;77.37;100636.97;7384201;19;20019;-67
2022/10/05 04:29:13;;;;;;;3.55;0.28;;;;;;;18.53;77.99;100640.28;7385072;19;20122;-64
2022/10/05 04:31:58;;;;;;;1.30;0.20;;;;;;;18.54;77.59;100636.59;7383555;19;20022;-64
2022/10/05 04:34:46;;;;;;;3.13;0.52;;;;;;;18.57;77.77;100635.38;7383075;19;20733;-63
2022/10/05 04:37:29;;;;;;;1.77;0.20;;;;;;;18.60;78.60;100637.59;7386147;19;20015;-63
2022/10/05 04:39:57;;;;;;;1.52;0.20;;;;;;;18.59;78.31;100634.09;7383778;19;20011;-64
2022/10/05 04:42:35;;;;;;;8.70;0.40;;;;;;;18.60;78.06;100641.09;7385656;19;20030;-65
2022/10/05 04:45:04;;;;;;;5.00;0.50;;;;;;;18.59;78.68;100630.66;7382049;19;20062;-64
2022/10/05 04:48:15;;;;;;;1.20;0.20;;;;;;;18.58;78.69;100635.16;7382534;19;20039;-64
2022/10/05 04:51:03;;;;;;;1.77;0.30;;;;;;;18.54;78.26;100636.59;7382211;19;20490;-66
2022/10/05 04:53:38;;;;;;;4.32;0.47;;;;;;;18.53;79.12;100620.78;7385052;19;20043;-64
2022/10/05 04:56:28;;;;;;;3.83;0.30;;;;;;;18.54;79.03;100619.81;7383292;19;20044;-64
2022/10/05 04:59:20;;;;;;;3.78;0.25;;;;;;;18.52;79.30;100627.97;7384445;19;20043;-65
2022/10/05 05:02:10;;;;;;;2.70;0.40;;;;;;;18.53;79.83;100610.13;7384476;19;20018;-64
2022/10/05 05:04:58;;;;;;;2.25;0.20;;;;;;;18.50;78.99;100613.19;7382761;19;20356;-63
2022/10/05 05:08:11;;;;;;;1.73;0.20;;;;;;;18.49;79.65;100623.03;7383352;19;20074;-65
2022/10/05 05:11:35;;;;;;;1.88;0.20;;;;;;;18.49;79.70;100612.38;7379394;19;20352;-64
2022/10/05 05:14:17;;;;;;;2.85;0.32;;;;;;;18.49;80.19;100608.91;7379595;19;20010;-65
2022/10/05 05:16:53;;;;;;;5.32;0.30;;;;;;;18.50;80.18;100605.19;7379549;19;20040;-65
2022/10/05 05:19:45;;;;;;;3.83;0.40;;;;;;;18.50;80.61;100584.72;7381360;19;20014;-66
2022/10/05 05:22:28;;;;;;;1.38;0.10;;;;;;;18.48;80.03;100584.13;7384881;19;20564;-64
2022/10/05 05:25:13;;;;;;;;;;;;;;;18.48;79.98;100581.44;7389971;19;20015;-63
2022/10/05 05:27:46;;;;;;;3.95;0.52;;;;;;;18.45;80.44;100583.69;7389427;19;19947;-65
2022/10/05 05:30:15;;;;;;;0.70;0.17;;;;;;;18.44;80.43;100582.09;7390260;19;20554;-65
2022/10/05 05:32:54;;;;;;;1.33;0.20;;;;;;;18.41;80.49;100572.66;7393481;19;20357;-65
2022/10/05 05:36:06;;;;;;;2.85;0.45;;;;;;;18.41;80.64;100574.50;7390275;19;20015;-64
2022/10/05 05:38:48;;;;;;;2.42;0.40;;;;;;;18.40;81.18;100568.34;7386265;19;20011;-64
2022/10/05 05:41:38;;;;;;;2.47;0.30;;;;;;;18.42;81.00;100566.28;7388144;19;20014;-65
2022/10/05 05:44:19;;;;;;;2.38;0.45;;;;;;;18.40;81.53;100555.03;7388390;19;20014;-64
2022/10/05 05:47:12;;;;;;;;;;;;;;;18.37;81.84;100558.94;7392444;19;20014;-64
2022/10/05 05:49:45;;;;;;;5.38;0.80;;;;;;;18.35;81.54;100558.31;7390317;19;19918;-64
2022/10/05 05:52:27;;;;;;;2.95;0.57;;;;;;;18.34;82.23;100556.69;7391196;19;20042;-65
2022/10/05 05:54:56;;;;;;;4.63;0.30;;;;;;;18.38;82.97;100552.59;7389840;19;20011;-64
2022/10/05 05:57:58;;;;;;;2.53;0.20;;;;;;;18.36;81.93;100565.28;7388334;19;20015;-63
2022/10/05 06:00:43;;;;;;;4.63;0.30;;;;;;;18.33;81.65;100557.72;7386623;19;20015;-64
2022/10/05 06:03:43;;;;;;;4.10;0.38;;;;;;;18.35;82.27;100538.84;7389907;19;20018;-64
2022/10/05 06:06:14;;;;;;;4.68;0.80;;;;;;;18.31;82.11;100551.78;7386946;19;20014;-64
2022/10/05 06:08:46;;;;;;;1.92;0.20;;;;;;;18.32;82.14;100557.94;7389259;19;20018;-64
2022/10/05 06:11:22;;;;;;;1.15;0.88;;;;;;;18.36;82.94;100556.47;7389061;19;20583;-64
2022/10/05 06:13:50;;;;;;;4.35;0.20;;;;;;;18.38;82.47;100557.09;7391295;19;20022;-65
2022/10/05 06:16:24;;;;;;;3.72;0.25;;;;;;;18.38;82.09;100552.59;7388092;19;20019;-64
2022/10/05 06:18:57;;;;;;;2.30;0.22;;;;;;;18.37;81.72;100566.94;7388080;19;20603;-64
2022/10/05 06:21:54;;;;;;;3.35;0.40;;;;;;;18.38;82.06;100554.44;7390260;19;20010;-64
2022/10/05 06:24:29;;;;;;;5.55;0.30;;;;;;;18.38;81.79;100568.56;7388265;19;20007;-64
2022/10/05 06:27:05;;;;;;;1.83;0.30;;;;;;;18.38;82.06;100554.44;7389699;19;20006;-64
2022/10/05 06:30:12;;;;;;;2.95;0.32;;;;;;;18.38;81.91;100565.09;7388811;19;20006;-64
2022/10/05 06:33:00;;;;;;;4.88;0.30;;;;;;;18.38;82.18;100567.75;7384684;19;20051;-66
2022/10/05 06:35:48;;;;;;;4.72;0.47;;;;;;;18.38;82.03;100567.75;7380665;19;20018;-64
2022/10/05 06:38:17;;;;;;;3.63;0.40;;;;;;;18.44;84.04;100568.75;7384386;19;20015;-65
2022/10/05 06:41:35;;;;;;;12.90;6.53;;;;;;;18.46;82.90;100575.50;7386987;19;20025;-64
2022/10/05 06:44:34;;;;;;;7.50;1.20;;;;;;;18.47;82.92;100571.81;7384800;19;20038;-65
2022/10/05 06:47:17;;;;;;;6.60;0.70;;;;;;;18.46;82.12;100572.84;7385130;19;20015;-64
2022/10/05 06:49:49;;;;;;;5.15;0.75;;;;;;;18.44;82.18;100550.91;7387308;19;20006;-64
2022/10/05 06:52:44;;;;;;;6.10;0.60;;;;;;;18.47;82.62;100555.00;7388139;19;20559;-63
2022/10/05 06:55:17;;;;;;;6.05;1.30;;;;;;;18.49;82.45;100558.28;7387043;19;20093;-63
2022/10/05 06:57:58;;;;;;;5.68;0.60;;;;;;;18.51;82.15;100566.88;7384591;19;20010;-65
2022/10/05 07:00:42;;;;;;;6.05;0.60;;;;;;;18.53;81.56;100556.84;7387406;19;20044;-63
2022/10/05 07:03:21;;;;;;;5.25;0.60;;;;;;;18.55;81.41;100560.13;7386175;19;20323;-64
2022/10/05 07:05:56;;;;;;;6.40;0.43;;;;;;;18.58;80.45;100559.72;7384668;19;20018;-63
2022/10/05 07:08:59;;;;;;;3.33;0.25;;;;;;;18.54;78.31;100561.16;7387715;19;20341;-65
2022/10/05 07:11:46;;;;;;;6.93;0.60;;;;;;;18.53;78.79;100555.00;7387409;19;20018;-64
2022/10/05 07:14:33;;;;;;;7.25;0.38;;;;;;;18.52;77.67;100544.53;7384608;19;20299;-64
2022/10/05 07:17:34;;;;;;;2.88;0.30;;;;;;;18.50;77.25;100547.41;7334005;19;20869;-64
2022/10/05 07:20:25;;;;;;;3.50;0.30;;;;;;;18.51;76.96;100527.72;7371547;19;20042;-63
2022/10/05 07:23:31;;;;;;;4.43;0.50;;;;;;;18.54;77.67;100532.66;7383391;19;20018;-64
2022/10/05 07:26:33;;;;;;;3.22;0.68;;;;;;;18.59;77.18;100524.03;7380614;19;20018;-64
2022/10/05 07:29:06;;;;;;;2.60;0.38;;;;;;;18.62;76.47;100526.28;7382668;19;20435;-64
2022/10/05 07:32:01;;;;;;;2.78;0.30;;;;;;;18.67;76.60;100518.44;7383339;19;20326;-65
2022/10/05 07:34:55;;;;;;;4.45;0.90;;;;;;;18.71;75.28;100523.13;7382528;19;20784;-64
2022/10/05 07:37:53;;;;;;;6.35;0.50;;;;;;;18.75;75.65;100527.00;7387850;19;20018;-64
2022/10/05 07:40:26;;;;;;;2.10;0.52;;;;;;;18.75;74.87;100518.19;7385513;19;20533;-63
2022/10/05 07:43:13;;;;;;;4.20;0.20;;;;;;;18.75;74.52;100520.84;7384585;19;20025;-65
2022/10/05 07:46:05;;;;;;;4.65;0.20;;;;;;;18.76;74.29;100515.31;7384604;19;20087;-64
2022/10/05 07:48:59;;;;;;;4.25;0.30;;;;;;;18.77;74.29;100502.81;7385868;19;20035;-65
2022/10/05 07:51:37;;;;;;;4.20;0.40;;;;;;;18.76;74.88;100512.66;7386245;19;20018;-65
2022/10/05 07:54:16;;;;;;;3.92;0.30;;;;;;;18.79;74.59;100514.09;7386607;19;20697;-64
2022/10/05 07:56:48;;;;;;;3.60;0.40;;;;;;;18.81;74.85;100504.00;7385586;19;20017;-63
2022/10/05 07:59:37;;;;;;;6.75;0.57;;;;;;;18.82;74.88;100505.66;7384651;19;20052;-64
2022/10/05 08:02:20;;;;;;;3.83;0.50;;;;;;;18.83;75.10;100514.47;7385951;19;20347;-65
2022/10/05 08:05:13;;;;;;;4.03;0.30;;;;;;;18.83;75.52;100501.97;7381067;19;20018;-65
2022/10/05 08:07:40;;;;;;;5.35;0.60;;;;;;;18.83;75.23;100509.97;7386626;19;20104;-64
2022/10/05 08:10:32;;;;;;;5.30;0.38;;;;;;;18.84;75.29;100500.94;7384626;19;20347;-63
2022/10/05 08:13:41;;;;;;;3.50;0.70;;;;;;;18.87;75.87;100497.00;7384113;19;20010;-64
2022/10/05 08:16:13;;;;;;;6.82;0.50;;;;;;;18.91;76.36;100499.03;7380364;19;20021;-64
2022/10/05 08:18:58;;;;;;;8.25;0.50;;;;;;;18.95;76.56;100502.88;7383941;19;20074;-64
2022/10/05 08:21:34;;;;;;;5.45;0.73;;;;;;;18.97;76.46;100494.69;7384357;19;20041;-64
2022/10/05 08:24:38;;;;;;;5.25;0.43;;;;;;;19.00;76.16;100503.06;7383389;19;20007;-65
2022/10/05 08:27:40;;;;;;;5.05;0.40;;;;;;;18.95;76.16;100489.56;7384681;19;20019;-64
2022/10/05 08:30:10;;;;;;;4.78;0.60;;;;;;;18.96;77.49;100488.53;7382272;19;20042;-64
2022/10/05 08:32:56;;;;;;;7.13;0.30;;;;;;;18.97;76.75;100492.00;7385181;19;20021;-64
2022/10/05 08:35:34;;;;;;;3.28;0.30;;;;;;;18.96;76.29;100495.72;7382990;19;20006;-65
2022/10/05 08:38:09;;;;;;;4.68;0.30;;;;;;;18.96;76.29;100490.38;7385033;19;20050;-63
2022/10/05 08:41:03;;;;;;;7.20;0.50;;;;;;;18.97;76.30;100484.00;7380922;19;20025;-64
2022/10/05 08:43:54;;;;;;;7.18;0.30;;;;;;;19.00;77.01;100486.22;7384707;19;20734;-63
2022/10/05 08:46:47;;;;;;;3.72;0.73;;;;;;;18.99;76.43;100489.97;7384929;19;20128;-64
2022/10/05 08:49:19;;;;;;;5.32;0.35;;;;;;;19.01;76.93;100486.03;7379773;19;20015;-63
2022/10/05 08:51:46;;;;;;;7.93;0.40;;;;;;;19.04;77.44;100482.94;7383129;19;20011;-64
2022/10/05 08:54:14;;;;;;;4.97;0.45;;;;;;;19.07;76.87;100469.16;7383877;19;20685;-65
2022/10/05 08:56:47;;;;;;;5.32;0.50;;;;;;;19.06;76.75;100467.53;7383566;19;20014;-65
2022/10/05 08:59:32;;;;;;;6.30;0.40;;;;;;;19.09;76.30;100469.78;7383906;19;20038;-63
2022/10/05 09:02:30;;;;;;;4.45;0.60;;;;;;;19.11;76.13;100475.69;7383939;19;20011;-65
2022/10/05 09:05:21;;;;;;;6.60;0.93;;;;;;;19.12;76.49;100480.00;7380739;19;20014;-64
2022/10/05 09:08:07;;;;;;;5.07;0.50;;;;;;;19.15;76.94;100473.41;7383714;19;20035;-64
2022/10/05 09:11:08;;;;;;;8.10;0.50;;;;;;;19.17;76.37;100472.16;7382404;19;20006;-64
2022/10/05 09:14:05;;;;;;;3.97;0.50;;;;;;;19.14;76.06;100464.59;7384356;19;20749;-64
2022/10/05 09:16:51;;;;;;;8.38;0.60;;;;;;;19.16;76.97;100472.38;7383720;19;20046;-65
2022/10/05 09:19:36;;;;;;;5.78;0.60;;;;;;;19.17;76.65;100472.16;7380872;19;20010;-63
2022/10/05 09:22:37;;;;;;;7.10;1.05;;;;;;;19.19;76.65;100475.44;7384244;19;20459;-65
2022/10/05 09:25:29;;;;;;;4.55;0.50;;;;;;;19.21;76.35;100472.53;7383624;19;20010;-66
2022/10/05 09:28:11;;;;;;;7.25;0.40;;;;;;;19.21;76.13;100469.88;7382738;19;20361;-65
2022/10/05 09:30:56;;;;;;;4.10;0.70;;;;;;;19.22;75.82;100458.97;7383534;19;20011;-63
2022/10/05 09:33:43;;;;;;;8.73;0.60;;;;;;;19.25;77.30;100448.94;7385466;19;20887;-63
2022/10/05 09:36:31;;;;;;;10.52;1.05;;;;;;;19.27;76.67;100461.00;7383196;19;20011;-65
2022/10/05 09:39:40;;;;;;;8.27;1.33;;;;;;;19.31;76.79;100456.03;7382779;19;20376;-65
2022/10/05 09:42:24;;;;;;;9.60;0.70;;;;;;;19.33;76.69;100441.44;7377561;19;20047;-64
2022/10/05 09:45:24;;;;;;;8.85;0.60;;;;;;;19.34;75.84;100443.09;7380607;19;20034;-64
2022/10/05 09:48:06;;;;;;;6.68;0.50;;;;;;;19.36;75.88;100437.50;7384576;19;20015;-64
2022/10/05 09:50:43;;;;;;;6.00;0.70;;;;;;;19.39;76.18;100453.09;7381153;19;20011;-64
2022/10/05 09:53:51;;;;;;;6.68;0.60;;;;;;;19.43;75.39;100451.63;7383198;19;20400;-64
2022/10/05 09:56:43;;;;;;;5.22;0.40;;;;;;;19.45;75.23;100442.41;7380318;19;20159;-64
2022/10/05 09:59:43;;;;;;;3.90;0.40;;;;;;;19.48;74.72;100433.13;7380280;19;20506;-65
2022/10/05 10:03:09;;;;;;;7.05;0.60;;;;;;;19.53;75.55;100442.09;7382692;19;20489;-65
2022/10/05 10:05:52;;;;;;;6.70;0.50;;;;;;;19.56;75.35;100433.63;7377823;19;20433;-64
2022/10/05 10:08:39;;;;;;;10.50;0.82;;;;;;;19.60;74.97;100431.38;7381200;19;20070;-64
2022/10/05 10:11:17;;;;;;;8.10;0.52;;;;;;;19.61;75.19;100425.78;7386223;19;20010;-64
2022/10/05 10:14:43;;;;;;;8.98;0.73;;;;;;;19.64;74.87;100438.72;7391234;19;20018;-63
2022/10/05 10:17:25;;;;;;;10.43;0.93;;;;;;;19.66;74.26;100433.13;7387022;19;20022;-68
2022/10/05 10:20:17;;;;;;;8.40;0.50;;;;;;;19.66;75.21;100425.13;7387802;19;20014;-65
2022/10/05 10:23:07;;;;;;;6.25;0.57;;;;;;;19.68;75.04;100416.91;7390052;19;20010;-64
2022/10/05 10:25:58;;;;;;;6.97;0.40;;;;;;;19.69;75.08;100414.00;7386596;19;20030;-63
2022/10/05 10:28:47;;;;;;;10.35;0.47;;;;;;;19.66;73.94;100416.31;7388522;19;20018;-63
2022/10/05 10:31:33;;;;;;;4.07;0.60;;;;;;;19.65;74.03;100420.84;7386569;19;20022;-65
2022/10/05 10:34:33;;;;;;;9.07;0.50;;;;;;;19.58;73.88;100422.75;7388333;19;20419;-66
2022/10/05 10:37:27;;;;;;;6.57;0.80;;;;;;;19.60;74.96;100421.50;7391119;19;20014;-65
2022/10/05 10:40:29;;;;;;;8.40;0.93;;;;;;;19.62;75.14;100418.59;7385454;19;20039;-64
2022/10/05 10:43:38;;;;;;;9.45;0.60;;;;;;;19.63;74.53;100420.22;7387535;19;20111;-64
2022/10/05 10:46:56;;;;;;;8.07;0.52;;;;;;;19.64;74.03;100408.53;7387352;19;20014;-64
2022/10/05 10:49:40;;;;;;;7.05;0.80;;;;;;;19.64;73.74;100403.19;7382749;19;20010;-65
2022/10/05 10:52:21;;;;;;;4.72;0.47;;;;;;;19.63;74.15;100406.88;7388243;19;20026;-64
2022/10/05 10:54:52;;;;;;;7.68;0.60;;;;;;;19.66;73.65;100402.97;7385665;19;20474;-65
2022/10/05 10:57:31;;;;;;;9.85;0.73;;;;;;;19.67;73.57;100400.06;7386510;19;20369;-63
2022/10/05 11:00:22;;;;;;;7.03;0.88;;;;;;;19.68;74.07;100406.22;7387387;19;20138;-63
2022/10/05 11:03:21;;;;;;;9.40;0.50;;;;;;;19.68;73.67;100417.72;7385970;19;20018;-64
2022/10/05 11:06:11;;;;;;;8.07;1.20;;;;;;;19.68;73.84;100412.38;7385464;19;20189;-64
2022/10/05 11:09:09;;;;;;;8.60;0.80;;;;;;;19.70;73.85;100418.31;7387723;19;20014;-63
2022/10/05 11:11:58;;;;;;;12.15;0.93;;;;;;;19.70;74.07;100415.66;7385478;19;20019;-64
2022/10/05 11:14:51;;;;;;;9.75;0.77;;;;;;;19.74;75.00;100424.03;7386754;19;20010;-64
2022/10/05 11:17:24;;;;;;;13.27;0.70;;;;;;;19.68;73.59;100404.38;7388674;19;20056;-64
2022/10/05 11:20:17;;;;;;;9.73;0.50;;;;;;;19.68;74.10;100416.91;7385465;19;20357;-64
2022/10/05 11:23:19;;;;;;;4.78;0.38;;;;;;;19.67;74.17;100413.41;7385996;19;20014;-65
2022/10/05 11:26:17;;;;;;;10.38;0.80;;;;;;;19.67;74.37;100409.91;7380142;19;20018;-67
2022/10/05 11:29:02;;;;;;;9.35;0.50;;;;;;;19.64;74.57;100425.34;7386938;19;20040;-64
2022/10/05 11:31:44;;;;;;;8.38;0.50;;;;;;;19.66;74.93;100424.31;7385895;19;20010;-64
2022/10/05 11:34:36;;;;;;;8.65;0.77;;;;;;;19.61;74.77;100417.78;7386417;19;20022;-63
2022/10/05 11:37:12;;;;;;;11.40;0.60;;;;;;;19.59;74.96;100429.72;7385926;19;20026;-64
2022/10/05 11:40:01;;;;;;;5.22;0.50;;;;;;;19.55;75.51;100432.03;7328914;19;20027;-65
2022/10/05 11:42:43;;;;;;;6.45;0.40;;;;;;;19.49;75.62;100430.25;7383978;19;20471;-64
2022/10/05 11:45:20;;;;;;;10.73;0.70;;;;;;;19.48;76.28;100409.09;7378901;19;20114;-63
2022/10/05 11:47:53;;;;;;;7.68;0.70;;;;;;;19.46;76.53;100419.16;7385232;19;20633;-64
2022/10/05 11:50:26;;;;;;;5.72;0.60;;;;;;;19.45;77.01;100436.25;7379204;19;20146;-68
2022/10/05 11:53:23;;;;;;;8.52;0.50;;;;;;;19.47;77.52;100431.47;7383897;19;20384;-67
2022/10/05 11:56:10;;;;;;;5.68;0.43;;;;;;;19.46;78.55;100435.19;7378717;19;20740;-71
2022/10/05 11:58:46;;;;;;;7.57;0.60;;;;;;;19.42;79.14;100440.13;7380347;19;20580;-67
2022/10/05 12:01:33;;;;;;;8.93;0.82;;;;;;;19.39;79.38;100431.75;7366220;19;20011;-63
2022/10/05 12:04:38;;;;;;;5.43;0.40;;;;;;;19.36;79.97;100437.50;7375679;19;20022;-65
2022/10/05 12:07:30;;;;;;;9.15;0.80;;;;;;;19.31;81.12;100435.50;7378991;19;20018;-64
2022/10/05 12:10:20;;;;;;;6.47;0.50;;;;;;;19.26;81.27;100427.34;7378002;19;20022;-64
2022/10/05 12:12:57;;;;;;;6.47;0.80;;;;;;;19.19;82.15;100434.59;7377857;19;20042;-65
2022/10/05 12:15:30;;;;;;;6.05;0.50;;;;;;;19.11;82.99;100427.69;7377129;19;20010;-64
2022/10/05 12:18:18;;;;;;;5.03;0.43;;;;;;;19.10;84.10;100439.38;7378891;19;20020;-67
2022/10/05 12:20:47;;;;;;;7.70;1.35;;;;;;;19.10;85.01;100431.38;7377222;19;20479;-64
2022/10/05 12:23:39;;;;;;;3.47;0.60;;;;;;;19.08;85.64;100430.78;7379631;19;20019;-64
2022/10/05 12:26:13;;;;;;;5.40;0.52;;;;;;;19.10;86.62;100430.56;7378449;19;20253;-64
2022/10/05 12:28:48;;;;;;;4.95;1.83;;;;;;;19.10;88.39;100420.69;7378030;19;20717;-65
2022/10/05 12:31:28;;;;;;;3.70;0.32;;;;;;;19.06;88.02;100426.69;7379968;19;20022;-63
2022/10/05 12:33:59;;;;;;;3.67;0.40;;;;;;;18.97;88.32;100423.50;7375569;19;20031;-63
2022/10/05 12:37:08;;;;;;;5.75;1.42;;;;;;;18.93;89.53;100419.63;7379302;19;20010;-65
2022/10/05 12:40:00;;;;;;;6.97;0.68;;;;;;;18.87;90.04;100420.50;7372497;19;20458;-64
2022/10/05 12:42:33;;;;;;;4.28;0.40;;;;;;;18.85;90.57;100424.41;7369744;19;20439;-65
2022/10/05 12:45:23;;;;;;;5.70;1.45;;;;;;;18.82;90.89;100422.19;7375872;19;20440;-64
2022/10/05 12:47:59;;;;;;;4.35;0.90;;;;;;;18.86;92.30;100429.53;7378262;19;20051;-67